createdAt,value
2022-10-28T10:39:37.764Z,97244.47
2022-10-28T10:40:50.406Z,97261.19
2022-10-28T10:41:57.433Z,97271.56
2022-10-28T10:43:17.545Z,97269.44
2022-10-28T10:44:21.720Z,97271.75
2022-10-28T11:01:40.245Z,97245.66
2022-10-28T11:02:46.944Z,97253.97
2022-10-28T11:05:03.264Z,97257.75
2022-10-28T11:06:24.340Z,97255.63
2022-10-28T11:37:37.248Z,97216.50
2022-10-28T11:38:53.947Z,97211.84
2022-10-28T11:40:17.481Z,97199.59
2022-10-28T11:42:11.512Z,97213.09
2022-10-28T11:43:15.792Z,97218.44
2022-10-28T11:44:23.083Z,97218.19
2022-10-28T11:45:31.980Z,97215.53
2022-10-28T11:46:51.520Z,97216.09
2022-10-28T11:48:00.042Z,97223.16
2022-10-28T11:49:26.376Z,97217.28
2022-10-28T11:50:45.637Z,97202.19
2022-10-28T11:52:02.661Z,97214.13
2022-10-28T11:53:33.572Z,97208.94
2022-10-28T11:55:02.499Z,97217.59
2022-10-28T11:56:28.747Z,97217.53
2022-10-28T11:57:53.383Z,97222.44
2022-10-28T11:59:16.510Z,97220.41
2022-10-28T12:00:50.341Z,97222.00
2022-10-28T12:01:57.678Z,97225.75
2022-10-28T12:03:17.556Z,97225.16
2022-10-28T12:04:36.826Z,97221.25
2022-10-28T12:05:50.288Z,97217.03
2022-10-28T12:07:03.683Z,97208.16
2022-10-28T12:08:34.519Z,97213.91
2022-10-28T12:10:05.708Z,97213.53
2022-10-28T12:11:12.950Z,97216.47
2022-10-28T12:12:51.411Z,97184.44
2022-10-28T12:14:17.602Z,97185.78
2022-10-28T12:15:41.125Z,97180.53
2022-10-28T12:17:03.739Z,97175.00
2022-10-28T12:24:54.205Z,97157.50
2022-10-28T12:25:59.002Z,97162.91
2022-10-28T12:27:06.674Z,97178.84
2022-10-28T12:28:19.659Z,97192.47
2022-10-28T12:29:24.303Z,97183.19
2022-10-28T12:30:34.631Z,97174.13
2022-10-28T12:31:45.128Z,97186.50
2022-10-28T12:32:49.869Z,97185.09
2022-10-28T12:33:56.507Z,97188.84
2022-10-28T12:35:15.880Z,97180.16
2022-10-28T12:36:26.847Z,97171.53
2022-10-28T12:37:37.030Z,97155.00
2022-10-28T12:38:56.747Z,97167.47
2022-10-28T12:40:10.267Z,97172.13
2022-10-28T12:41:17.465Z,97148.00
2022-10-28T12:48:05.442Z,97179.94
2022-10-28T12:49:21.025Z,97178.84
2022-10-28T12:50:28.100Z,97189.75
2022-10-28T12:51:39.982Z,97182.22
2022-10-28T12:53:02.457Z,97185.06
2022-10-28T12:54:58.447Z,97177.41
2022-10-28T12:56:02.007Z,97174.41
2022-10-28T12:57:09.523Z,97181.66
2022-10-28T12:58:16.541Z,97175.69
2022-10-28T12:59:29.835Z,97175.09
2022-10-28T13:00:43.381Z,97183.88
2022-10-28T13:01:52.779Z,97180.19
2022-10-28T13:03:04.173Z,97166.81
2022-10-28T13:04:05.886Z,97176.94
2022-10-28T13:05:13.231Z,97169.72
2022-10-28T13:06:23.591Z,97180.31
2022-10-28T13:07:32.502Z,97172.34
2022-10-28T13:08:48.899Z,97176.31
2022-10-28T13:10:11.329Z,97172.56
2022-10-28T13:11:21.862Z,97175.47
2022-10-28T13:12:29.002Z,97172.94
2022-10-28T13:13:56.296Z,97163.66
2022-10-28T13:15:00.599Z,97165.44
2022-10-28T13:16:11.059Z,97161.38
2022-10-28T13:17:34.624Z,97169.47
2022-10-28T13:18:38.615Z,97169.84
2022-10-28T13:20:01.162Z,97170.19
2022-10-28T13:21:35.891Z,97167.44
2022-10-28T13:22:46.378Z,97163.19
2022-10-28T13:24:05.805Z,97163.63
2022-10-28T13:25:40.855Z,97160.91
2022-10-28T13:26:44.969Z,97152.16
2022-10-28T13:27:46.823Z,97149.19
2022-10-28T13:28:51.594Z,97150.53
2022-10-28T13:35:04.625Z,97161.78
2022-10-28T13:36:16.637Z,97159.91
2022-10-28T13:37:22.889Z,97144.00
2022-10-28T13:38:26.841Z,97149.41
2022-10-28T13:39:28.326Z,97163.19
2022-10-28T13:40:33.660Z,97160.25
2022-10-28T13:41:38.653Z,97169.44
2022-10-28T13:42:48.873Z,97167.97
2022-10-28T13:43:50.252Z,97170.44
2022-10-28T13:44:51.518Z,97171.63
2022-10-28T13:45:55.327Z,97166.22
2022-10-28T13:46:59.680Z,97166.41
2022-10-28T13:53:10.360Z,97160.53
2022-10-28T13:54:25.609Z,97166.88
2022-10-28T13:55:42.863Z,97175.50
2022-10-28T13:56:51.895Z,97164.47
2022-10-28T13:58:24.148Z,97171.38
2022-10-28T14:05:05.875Z,97172.66
2022-10-28T14:06:07.610Z,97170.50
2022-10-28T14:07:12.525Z,97174.97
2022-10-28T14:08:30.981Z,97175.03
2022-10-28T14:09:35.508Z,97180.88
2022-10-28T14:10:39.716Z,97174.94
2022-10-28T14:11:41.428Z,97156.69
2022-10-28T14:12:47.196Z,97174.94
2022-10-28T14:13:59.753Z,97172.63
2022-10-28T14:15:10.418Z,97180.19
2022-10-28T14:16:33.105Z,97173.38
2022-10-28T14:29:23.618Z,97190.94
2022-10-28T14:30:25.042Z,97175.53
2022-10-28T14:31:42.803Z,97184.91
2022-10-28T14:32:50.220Z,97185.53
2022-10-28T14:34:11.472Z,97189.97
2022-10-28T14:35:15.746Z,97193.19
2022-10-28T14:36:19.926Z,97195.59
2022-10-28T14:37:32.031Z,97191.97
2022-10-28T14:39:04.422Z,97188.19
2022-10-28T14:40:31.018Z,97191.59
2022-10-28T14:47:06.071Z,97191.94
2022-10-28T14:48:44.052Z,97182.94
2022-10-28T14:50:03.365Z,97189.84
2022-10-28T14:51:12.047Z,97188.03
2022-10-28T14:52:18.316Z,97184.75
2022-10-28T14:53:28.462Z,97184.50
2022-10-28T14:54:35.334Z,97188.97
2022-10-28T14:55:40.088Z,97168.50
2022-10-28T14:56:45.339Z,97182.66
2022-10-28T14:57:46.771Z,97180.16
2022-10-28T14:58:49.073Z,97177.34
2022-10-28T15:05:05.785Z,97185.59
2022-10-28T15:06:43.678Z,97173.50
2022-10-28T15:07:45.491Z,97177.75
2022-10-28T15:08:46.867Z,97173.97
2022-10-28T15:09:53.348Z,97179.31
2022-10-28T15:10:55.139Z,97173.00
2022-10-28T15:12:01.179Z,97178.44
2022-10-28T15:13:04.854Z,97166.91
2022-10-28T15:14:24.743Z,97163.88
2022-10-28T15:15:28.788Z,97176.81
2022-10-28T15:16:30.125Z,97167.47
2022-10-28T15:29:05.428Z,97168.78
2022-10-28T15:30:20.668Z,97165.56
2022-10-28T15:31:22.020Z,97160.22
2022-10-28T15:32:23.321Z,97168.78
2022-10-28T15:33:32.656Z,97165.97
2022-10-28T15:34:34.135Z,97168.22
2022-10-28T15:53:42.227Z,97168.88
2022-10-28T15:54:58.373Z,97149.38
2022-10-28T15:56:18.539Z,97162.16
2022-10-28T15:57:26.082Z,97173.31
2022-10-28T15:58:32.938Z,97173.22
2022-10-28T15:59:34.272Z,97160.56
2022-10-28T16:00:50.220Z,97175.59
2022-10-28T16:01:55.976Z,97173.78
2022-10-28T16:03:05.334Z,97174.63
2022-10-28T16:04:35.495Z,97159.47
2022-10-28T16:05:39.719Z,97172.38
2022-10-28T16:06:41.169Z,97158.06
2022-10-28T16:07:45.699Z,97158.53
2022-10-28T16:08:47.852Z,97177.13
2022-10-28T16:09:50.561Z,97162.75
2022-10-28T16:10:56.448Z,97175.66
2022-10-28T16:12:02.107Z,97172.50
2022-10-28T16:13:09.032Z,97142.47
2022-10-28T16:14:26.562Z,97168.75
2022-10-28T16:15:31.947Z,97172.03
2022-10-28T16:16:33.432Z,97172.75
2022-10-28T16:29:05.626Z,97189.22
2022-10-28T16:30:07.587Z,97172.44
2022-10-28T16:31:16.785Z,97184.97
2022-10-28T16:32:34.893Z,97193.03
2022-10-28T16:33:38.388Z,97183.50
2022-10-28T16:34:39.997Z,97192.41
2022-10-28T16:41:06.072Z,97207.75
2022-10-28T16:42:11.644Z,97209.31
2022-10-28T16:43:19.577Z,97208.81
2022-10-28T16:44:22.580Z,97207.63
2022-10-28T16:45:24.083Z,97215.00
2022-10-28T16:46:25.450Z,97214.16
2022-10-28T16:47:27.031Z,97213.22
2022-10-28T16:48:30.595Z,97212.34
2022-10-28T16:49:32.124Z,97209.66
2022-10-28T16:50:33.492Z,97221.50
2022-10-28T16:51:34.993Z,97221.94
2022-10-28T16:52:36.698Z,97213.50
2022-10-28T16:53:38.799Z,97201.06
2022-10-28T16:54:40.157Z,97206.94
2022-10-28T16:55:41.784Z,97201.88
2022-10-28T16:56:43.214Z,97215.00
2022-10-28T16:57:44.658Z,97206.44
2022-10-28T16:58:46.746Z,97218.53
2022-10-28T17:05:07.345Z,97211.88
2022-10-28T17:06:10.352Z,97215.03
2022-10-28T17:07:16.191Z,97196.13
2022-10-28T17:08:42.203Z,97203.19
2022-10-28T17:09:42.905Z,97191.47
2022-10-28T17:10:44.481Z,97206.81
2022-10-28T17:11:45.988Z,97211.38
2022-10-28T17:12:47.842Z,97206.53
2022-10-28T17:13:49.296Z,97206.13
2022-10-28T17:14:50.887Z,97209.09
2022-10-28T17:15:53.629Z,97209.97
2022-10-28T17:16:55.026Z,97203.69
2022-10-28T17:23:02.015Z,97222.13
2022-10-28T17:24:04.545Z,97213.75
2022-10-28T17:25:06.468Z,97211.47
2022-10-28T17:26:08.644Z,97223.97
2022-10-28T17:27:10.013Z,97225.25
2022-10-28T17:28:11.594Z,97198.81
2022-10-28T17:36:05.184Z,97232.66
2022-10-28T17:37:07.696Z,97217.53
2022-10-28T17:38:09.241Z,97232.44
2022-10-28T17:39:16.447Z,97226.72
2022-10-28T17:40:22.871Z,97229.38
2022-10-28T17:41:24.303Z,97228.63
2022-10-28T17:42:25.718Z,97231.66
2022-10-28T17:43:27.637Z,97239.69
2022-10-28T17:44:29.029Z,97231.25
2022-10-28T17:45:30.463Z,97240.63
2022-10-28T17:46:31.810Z,97237.66
2022-10-28T17:47:34.458Z,97244.63
2022-10-28T17:48:35.891Z,97236.50
2022-10-28T17:49:41.187Z,97231.81
2022-10-28T17:50:44.055Z,97238.50
2022-10-28T17:51:45.417Z,97237.75
2022-10-28T17:52:46.769Z,97235.50
2022-10-28T17:53:54.139Z,97233.91
2022-10-28T17:54:59.485Z,97239.19
2022-10-28T17:56:02.860Z,97237.53
2022-10-28T17:57:04.412Z,97239.50
2022-10-28T17:58:05.770Z,97238.34
2022-10-28T17:59:07.612Z,97245.00
2022-10-28T18:00:10.108Z,97236.25
2022-10-28T18:01:11.592Z,97242.59
2022-10-28T18:02:14.750Z,97229.34
2022-10-28T18:03:16.177Z,97244.59
2022-10-28T18:04:17.983Z,97237.53
2022-10-28T18:05:19.361Z,97243.88
2022-10-28T18:06:20.934Z,97227.50
2022-10-28T18:07:22.287Z,97236.28
2022-10-28T18:08:23.869Z,97234.50
2022-10-28T18:09:25.409Z,97239.94
2022-10-28T18:10:26.767Z,97239.81
2022-10-28T18:11:31.473Z,97231.88
2022-10-28T18:12:32.889Z,97242.06
2022-10-28T18:13:37.446Z,97236.84
2022-10-28T18:14:39.303Z,97240.66
2022-10-28T18:15:40.672Z,97246.94
2022-10-28T18:16:42.219Z,97240.91
2022-10-28T18:23:04.919Z,97231.59
2022-10-28T18:24:06.936Z,97234.97
2022-10-28T18:25:08.692Z,97241.00
2022-10-28T18:26:14.773Z,97241.84
2022-10-28T18:27:16.147Z,97235.19
2022-10-28T18:28:17.748Z,97240.34
2022-10-28T18:29:22.131Z,97238.22
2022-10-28T18:30:23.543Z,97242.00
2022-10-28T18:31:25.764Z,97243.66
2022-10-28T18:32:27.085Z,97248.59
2022-10-28T18:33:35.370Z,97242.25
2022-10-28T18:34:36.925Z,97238.78
2022-10-28T18:35:38.346Z,97245.56
2022-10-28T18:36:39.811Z,97238.03
2022-10-28T18:37:41.215Z,97243.13
2022-10-28T18:38:42.847Z,97240.47
2022-10-28T18:39:44.175Z,97245.78
2022-10-28T18:40:47.065Z,97246.81
2022-10-28T18:41:52.738Z,97246.72
2022-10-28T18:42:54.049Z,97250.19
